KEOK/EOK METAR and TAF weather

Enter ICAO airport designator
Station Type Date Time Source
KEOK METAR 2020/09/22 00:15 UTC NOAA

KEOK 220015Z AUTO 00000KT 10SM CLR 18/14 A3020 RMK AO2


Station Type Date Time Source
KEOK Decoded METAR 2020/09/22 00:15 UTC NOAA

Keokuk Municipal, IA, United States (KEOK) 40-28N 091-26W
Sep 21, 2020 - 08:15 PM EDT / 2020.09.22 0015 UTC
Wind: Calm:0
Visibility: 10 mile(s):0
Sky conditions: clear
Temperature: 64 F (18 C)
Dew Point: 57 F (14 C)
Relative Humidity: 77%
Pressure (altimeter): 30.2 in. Hg (1022 hPa)
ob: KEOK 220015Z AUTO 00000KT 10SM CLR 18/14 A3020 RMK AO2
cycle: 0

Station Type Date Time Source
KEOK TAF UTC NOAA

Error!

Example: see airport list